Shafter, Texas
Current Conditions -  °F | °C
As of 12:15 PM on Friday 28 Nov 2014 (Local Time) from KPRS Reporting Station
Clear Clear  
Wind Chill: 61°   Ceiling: Unl
Heat Index: 61°   Visibility: 10mi
Dew Point: 28°   Wind: 0mph
Humidity: 28%   Direction: NA
Pressure: 30.24"   Gusts: NA
Location:  29.82°N, 104.3°W
Report Text: KPRS 281815Z AUTO 00000KT 10SM CLR 16/M02 A3024 RMK AO2 T01601024
Loading
Personal Weather Stations






























Interactive Weather Map New forecast layout! Learn more

10-Day Weather Forecast

Advertisements
Track Severe Weather on mobile